Miami, FL

7:04 PM EDT on July 24, 2016 (GMT -0400)
Jaremt | | Change Station

Elev 33 ft 25.63 °N, 80.43 °W | Updated 52 seconds ago

Clear
Clear
85.8 °F
Feels Like 92 °F
N
5.8
Wind Variable Wind from ESE

Today
High -- | Low -- °F
--% Chance of Precip.
Yesterday
High -- | Low -- °F
Precip. -- in
Pressure 30.02 in
Visibility 10.0 miles
Clouds Clear
Heat Index 92 °F
Dew Point 72 °F
Humidity 64%
Rainfall 0.01 in
Snow Depth Not available.
6:44 AM 8:11 PM
Waning Gibbous, 72% visible
METAR KTMB 242253Z AUTO 09009KT 10SM CLR 28/23 A3002 RMK AO2 SLP164 T02830228 TSNO
Pressure 30.02 in
Visibility 10.0 miles
Clouds Clear
Heat Index 92 °F
Dew Point 72 °F
Humidity 64%
Rainfall 0.01 in
Snow Depth Not available.
6:44 AM 8:11 PM
Waning Gibbous, 72% visible
METAR KTMB 242253Z AUTO 09009KT 10SM CLR 28/23 A3002 RMK AO2 SLP164 T02830228 TSNO

10-Day Weather Forecast

Almanac

Astronomy

Jul. 24, 2016 Rise Set
Actual Time
Civil Twilight
Nautical Twilight
Astronomical Twilight
Moon
Length of Visible Light
Length of Day
Tomorrow will be .
, % of the Moon is Illuminated

Today's Extremes

State Highs State Lows

Community

WunderPhotos

Upload Photos

1,927,204 photos uploaded!

WunderBlog® & News

Nearby

Air Quality

  Air Quality AQ Index Pollutant
Not available.

Snow Depth

Station Depth Elevation

Earthquake Activity

City Distance Mag. Time & Date
Minimum magnitude displayed is 2.5.

Coastal Water Temperatures

Place Temperature

Stations

Nearby Weather Stations

Station Location Temp. Windchill Dew Point Humidity Wind Precip. Elev Updated Type
                   

Watches & Warnings

There are currently no watches in effect.